createdAt,value
2022-11-25T00:01:26.059Z,5.70
2022-11-25T00:04:11.343Z,5.69
2022-11-25T00:06:56.669Z,5.66
2022-11-25T00:09:42.169Z,5.63
2022-11-25T00:12:27.575Z,5.65
2022-11-25T00:15:13.019Z,5.71
2022-11-25T00:17:58.095Z,5.76
2022-11-25T00:20:43.570Z,5.75
2022-11-25T00:23:33.114Z,5.73
2022-11-25T00:26:19.488Z,5.67
2022-11-25T00:29:06.752Z,5.63
2022-11-25T00:31:54.138Z,5.60
2022-11-25T00:34:39.465Z,5.58
2022-11-25T00:37:26.439Z,5.55
2022-11-25T00:40:12.551Z,5.58
2022-11-25T00:43:16.336Z,5.63
2022-11-25T00:46:01.709Z,5.69
2022-11-25T00:48:46.910Z,5.75
2022-11-25T00:51:31.966Z,5.78
2022-11-25T00:54:17.492Z,5.76
2022-11-25T00:57:02.658Z,5.73
2022-11-25T00:59:49.222Z,5.70
2022-11-25T01:02:34.752Z,5.63
2022-11-25T01:05:20.209Z,5.56
2022-11-25T01:08:05.565Z,5.51
2022-11-25T01:10:58.574Z,5.51
2022-11-25T01:13:43.841Z,5.53
2022-11-25T01:16:30.003Z,5.56
2022-11-25T01:19:16.237Z,5.59
2022-11-25T01:22:01.610Z,5.65
2022-11-25T01:24:47.093Z,5.70
2022-11-25T01:27:33.270Z,5.74
2022-11-25T01:30:18.722Z,5.75
2022-11-25T01:33:03.911Z,5.65
2022-11-25T01:35:49.220Z,5.60
2022-11-25T01:38:35.364Z,5.61
2022-11-25T01:41:21.916Z,5.62
2022-11-25T01:44:12.342Z,5.60
2022-11-25T01:47:03.306Z,5.57
2022-11-25T01:50:02.422Z,5.58
2022-11-25T01:52:53.174Z,5.67
2022-11-25T01:55:42.825Z,5.65
2022-11-25T01:58:36.507Z,5.66
2022-11-25T02:01:22.460Z,5.64
2022-11-25T02:04:10.621Z,5.62
2022-11-25T02:07:03.646Z,5.60
2022-11-25T02:09:50.486Z,5.55
2022-11-25T02:12:38.697Z,5.46
2022-11-25T02:15:24.529Z,5.32
2022-11-25T02:18:10.116Z,5.24
2022-11-25T02:20:55.222Z,5.16
2022-11-25T02:23:59.040Z,5.14
2022-11-25T02:26:44.666Z,5.21
2022-11-25T02:29:30.239Z,5.31
2022-11-25T02:32:16.052Z,5.36
2022-11-25T02:35:01.156Z,5.36
2022-11-25T02:37:46.515Z,5.39
2022-11-25T02:40:36.318Z,5.45
2022-11-25T02:43:22.052Z,5.47
2022-11-25T02:46:11.073Z,5.44
2022-11-25T02:49:13.227Z,5.46
2022-11-25T02:52:00.518Z,5.46
2022-11-25T02:54:47.641Z,5.47
2022-11-25T02:57:33.748Z,5.47
2022-11-25T03:00:19.559Z,5.48
2022-11-25T03:03:05.473Z,5.54
2022-11-25T03:05:50.754Z,5.59
2022-11-25T03:08:36.821Z,5.62
2022-11-25T03:11:45.708Z,5.64
2022-11-25T03:14:32.185Z,5.64
2022-11-25T03:17:17.528Z,5.67
2022-11-25T03:20:04.738Z,5.66
2022-11-25T03:22:50.742Z,5.64
2022-11-25T03:25:36.333Z,5.68
2022-11-25T03:28:23.189Z,5.69
2022-11-25T03:31:12.163Z,5.74
2022-11-25T03:33:57.833Z,5.67
2022-11-25T03:36:43.198Z,5.59
2022-11-25T03:39:29.444Z,5.58
2022-11-25T03:42:14.837Z,5.56
2022-11-25T03:45:01.081Z,5.62
2022-11-25T03:47:46.586Z,5.67
2022-11-25T03:50:31.968Z,5.76
2022-11-25T03:53:17.319Z,5.73
2022-11-25T03:56:02.961Z,5.74
2022-11-25T03:58:48.745Z,5.77
2022-11-25T04:01:41.489Z,5.81
2022-11-25T04:04:29.393Z,5.82
2022-11-25T04:07:14.676Z,5.75
2022-11-25T04:09:59.970Z,5.70
2022-11-25T04:12:48.233Z,5.70
2022-11-25T04:15:46.519Z,5.75
2022-11-25T04:18:32.420Z,5.82
2022-11-25T04:21:18.666Z,5.87
2022-11-25T04:24:03.797Z,5.91
2022-11-25T04:26:48.999Z,5.91
2022-11-25T04:29:34.339Z,5.88
2022-11-25T04:32:22.299Z,5.85
2022-11-25T04:35:08.397Z,5.90
2022-11-25T04:37:54.595Z,5.89
2022-11-25T04:40:41.101Z,5.84
2022-11-25T04:43:36.146Z,5.79
2022-11-25T04:46:40.875Z,5.77
2022-11-25T04:49:26.403Z,5.69
2022-11-25T04:52:11.877Z,5.62
2022-11-25T04:54:57.453Z,5.59
2022-11-25T04:57:42.558Z,5.57
2022-11-25T05:00:28.785Z,5.60
2022-11-25T05:03:15.715Z,5.64
2022-11-25T05:06:06.726Z,5.61
2022-11-25T05:08:53.741Z,5.66
2022-11-25T05:11:41.551Z,5.66
2022-11-25T05:14:26.950Z,5.60
2022-11-25T05:17:18.411Z,5.66
2022-11-25T05:20:04.768Z,5.74
2022-11-25T05:22:52.313Z,5.78
2022-11-25T05:25:40.449Z,5.75
2022-11-25T05:28:43.822Z,5.74
2022-11-25T05:31:30.355Z,5.70
2022-11-25T05:34:16.073Z,5.70
2022-11-25T05:37:02.747Z,5.68
2022-11-25T05:39:49.537Z,5.66
2022-11-25T05:42:43.663Z,5.66
2022-11-25T05:45:29.114Z,5.66
2022-11-25T05:48:16.035Z,5.66
2022-11-25T05:51:03.332Z,5.67
2022-11-25T05:53:49.835Z,5.67
2022-11-25T05:56:37.698Z,5.75
2022-11-25T05:59:46.046Z,5.77
2022-11-25T06:02:40.607Z,5.85
2022-11-25T06:05:27.315Z,5.87
2022-11-25T06:08:12.436Z,5.86
2022-11-25T06:10:58.187Z,5.79
2022-11-25T06:13:44.674Z,5.73
2022-11-25T06:16:30.429Z,5.60
2022-11-25T06:19:26.502Z,5.49
2022-11-25T06:22:12.024Z,5.43
2022-11-25T06:25:03.100Z,5.37
2022-11-25T06:28:11.835Z,5.35
2022-11-25T06:30:56.278Z,5.33
2022-11-25T06:33:54.733Z,5.30
2022-11-25T06:36:40.040Z,5.30
2022-11-25T06:39:25.479Z,5.30
2022-11-25T06:42:11.228Z,5.35
2022-11-25T06:44:56.173Z,5.36
2022-11-25T06:47:41.611Z,5.35
2022-11-25T06:50:27.002Z,5.32
2022-11-25T06:53:12.027Z,5.31
2022-11-25T06:56:05.294Z,5.33
2022-11-25T06:58:51.761Z,5.33
2022-11-25T07:01:37.114Z,5.34
2022-11-25T07:04:22.174Z,5.32
2022-11-25T07:07:07.688Z,5.32
2022-11-25T07:09:52.789Z,5.34
2022-11-25T07:12:38.419Z,5.36
2022-11-25T07:15:23.655Z,5.34
2022-11-25T07:18:09.129Z,5.37
2022-11-25T07:20:54.444Z,5.42
2022-11-25T07:23:40.562Z,5.44
2022-11-25T07:26:28.896Z,5.46
2022-11-25T07:32:22.631Z,5.54
2022-11-25T07:35:08.269Z,5.55
2022-11-25T07:37:53.568Z,5.60
2022-11-25T07:40:39.221Z,5.60
2022-11-25T07:43:24.707Z,5.57
2022-11-25T07:46:13.262Z,5.54
2022-11-25T07:49:02.020Z,5.50
2022-11-25T07:51:53.680Z,5.51
2022-11-25T07:54:38.808Z,5.51
2022-11-25T07:57:24.294Z,5.55
2022-11-25T08:00:10.320Z,5.57
2022-11-25T08:02:59.834Z,5.61
2022-11-25T08:05:45.381Z,5.69
2022-11-25T08:08:30.560Z,5.73
2022-11-25T08:11:22.476Z,5.74
2022-11-25T08:14:08.591Z,5.76
2022-11-25T08:16:54.332Z,5.80
2022-11-25T08:19:40.241Z,5.85
2022-11-25T08:22:25.578Z,5.93
2022-11-25T08:25:10.688Z,5.96
2022-11-25T08:27:55.903Z,6.02
2022-11-25T08:30:41.466Z,6.04
2022-11-25T08:33:26.787Z,6.05
2022-11-25T08:36:12.561Z,6.09
2022-11-25T08:38:59.958Z,6.14
2022-11-25T08:41:45.211Z,6.23
2022-11-25T08:44:30.714Z,6.30
2022-11-25T08:47:15.662Z,6.40
2022-11-25T08:50:01.368Z,6.50
2022-11-25T08:52:46.340Z,6.53
2022-11-25T08:55:32.665Z,6.61
2022-11-25T08:58:18.248Z,6.64
2022-11-25T09:01:04.784Z,6.64
2022-11-25T09:03:53.091Z,6.63
2022-11-25T09:06:38.869Z,6.69
2022-11-25T09:09:24.102Z,6.71
2022-11-25T09:12:09.768Z,6.87
2022-11-25T09:14:55.146Z,6.81
2022-11-25T09:17:40.492Z,6.69
2022-11-25T09:20:27.311Z,6.50
2022-11-25T09:23:13.078Z,6.48
2022-11-25T09:25:59.321Z,6.53
2022-11-25T09:28:44.712Z,6.58
2022-11-25T09:31:30.419Z,6.55
2022-11-25T09:34:15.536Z,6.48
2022-11-25T09:37:01.045Z,6.45
2022-11-25T09:39:46.141Z,6.47
2022-11-25T09:43:08.355Z,6.50
2022-11-25T09:46:18.376Z,6.46
2022-11-25T09:49:18.774Z,6.47
2022-11-25T09:52:04.363Z,6.51
2022-11-25T09:55:02.774Z,6.64
2022-11-25T09:58:03.333Z,6.82
2022-11-25T10:00:51.443Z,7.10
2022-11-25T10:03:43.221Z,7.26
2022-11-25T10:06:31.875Z,7.25
2022-11-25T10:09:23.833Z,7.24
2022-11-25T10:12:27.681Z,7.27
2022-11-25T10:15:21.066Z,7.24
2022-11-25T10:18:24.636Z,7.25
2022-11-25T10:21:11.587Z,7.25
2022-11-25T10:23:57.281Z,7.21
2022-11-25T10:26:45.279Z,7.24
2022-11-25T10:29:31.253Z,7.33
2022-11-25T10:32:24.436Z,7.27
2022-11-25T10:35:21.233Z,7.03
2022-11-25T10:38:19.030Z,7.01
2022-11-25T10:41:05.984Z,7.08
2022-11-25T10:43:51.599Z,7.04
2022-11-25T10:47:11.781Z,7.11
2022-11-25T10:50:19.771Z,7.55
2022-11-25T10:53:15.833Z,8.37
2022-11-25T10:56:04.559Z,8.94
2022-11-25T10:58:49.635Z,9.41
2022-11-25T11:01:35.356Z,9.72
2022-11-25T11:04:21.115Z,9.62
2022-11-25T11:07:09.390Z,9.37
2022-11-25T11:09:54.848Z,8.82
2022-11-25T11:12:59.031Z,8.48
2022-11-25T11:15:47.333Z,8.29
2022-11-25T11:18:38.837Z,8.11
2022-11-25T11:21:29.071Z,8.01
2022-11-25T11:24:35.712Z,8.05
2022-11-25T11:27:23.675Z,8.25
2022-11-25T11:30:15.586Z,8.31
2022-11-25T11:33:07.276Z,8.21
2022-11-25T11:36:09.897Z,8.16
2022-11-25T11:39:11.710Z,8.21
2022-11-25T11:42:14.006Z,8.19
2022-11-25T11:45:24.388Z,8.31
2022-11-25T11:48:13.265Z,8.13
2022-11-25T11:51:30.475Z,8.20
2022-11-25T11:54:23.969Z,8.27
2022-11-25T11:57:54.175Z,8.44
2022-11-25T12:00:58.015Z,8.52
2022-11-25T12:03:58.455Z,8.55
2022-11-25T12:06:53.792Z,8.46
2022-11-25T12:09:48.282Z,8.44
2022-11-25T12:13:01.990Z,8.39
2022-11-25T12:16:09.086Z,8.27
2022-11-25T12:19:21.016Z,8.14
2022-11-25T12:22:06.136Z,8.05
2022-11-25T12:25:13.935Z,8.00
2022-11-25T12:28:07.057Z,7.98
2022-11-25T12:31:05.309Z,7.92
2022-11-25T12:34:04.116Z,7.83
2022-11-25T12:36:49.725Z,7.75
2022-11-25T12:39:45.561Z,7.72
2022-11-25T12:42:33.512Z,7.66
2022-11-25T12:45:22.887Z,7.58
2022-11-25T12:48:11.799Z,7.50
2022-11-25T12:51:00.157Z,7.45
2022-11-25T12:54:17.642Z,7.41
2022-11-25T12:57:45.821Z,7.40
2022-11-25T13:01:07.118Z,7.36
2022-11-25T13:04:18.454Z,7.37
2022-11-25T13:07:33.296Z,7.37
2022-11-25T13:10:30.848Z,7.39
2022-11-25T13:13:55.188Z,7.45
2022-11-25T13:16:43.239Z,7.48
2022-11-25T13:19:29.153Z,7.43
2022-11-25T13:22:20.566Z,7.42
2022-11-25T13:25:24.497Z,7.40
2022-11-25T13:28:37.491Z,7.40
2022-11-25T13:31:24.260Z,7.39
2022-11-25T13:34:18.873Z,7.37
2022-11-25T13:37:43.322Z,7.37
2022-11-25T13:40:32.063Z,7.30
2022-11-25T13:43:22.496Z,7.21
2022-11-25T13:46:08.238Z,7.24
2022-11-25T13:48:53.696Z,7.26
2022-11-25T13:51:49.959Z,7.19
2022-11-25T13:54:43.497Z,7.19
2022-11-25T13:57:31.677Z,7.20
2022-11-25T14:00:20.091Z,7.09
2022-11-25T14:03:20.854Z,6.98
2022-11-25T14:06:32.539Z,6.89
2022-11-25T14:09:49.249Z,6.85
2022-11-25T14:13:16.578Z,6.81
2022-11-25T14:16:33.004Z,6.77
2022-11-25T14:19:50.687Z,6.72
2022-11-25T14:23:01.594Z,6.81
2022-11-25T14:25:53.574Z,6.79
2022-11-25T14:28:57.834Z,6.74
2022-11-25T14:31:47.168Z,6.71
2022-11-25T14:34:44.385Z,6.76
2022-11-25T14:37:46.266Z,6.82
2022-11-25T14:40:57.096Z,6.87
2022-11-25T14:43:48.819Z,6.85
2022-11-25T14:46:35.091Z,6.87
2022-11-25T14:52:36.471Z,6.86
2022-11-25T14:55:31.327Z,6.83
2022-11-25T14:58:17.530Z,6.82
2022-11-25T15:01:08.671Z,6.82
2022-11-25T15:04:04.871Z,6.80
2022-11-25T15:07:01.175Z,6.79
2022-11-25T15:10:03.393Z,6.79
2022-11-25T15:14:05.262Z,6.75
2022-11-25T15:16:57.896Z,6.68
2022-11-25T15:19:47.829Z,6.66
2022-11-25T15:22:34.018Z,6.65
2022-11-25T15:25:20.611Z,6.67
2022-11-25T15:28:21.371Z,6.73
2022-11-25T15:31:12.913Z,6.80
2022-11-25T15:34:07.722Z,6.84
2022-11-25T15:41:15.489Z,6.86
2022-11-25T15:44:04.105Z,6.82
2022-11-25T15:46:57.701Z,6.83
2022-11-25T15:49:49.212Z,6.80
2022-11-25T15:52:41.033Z,6.80
2022-11-25T15:55:39.818Z,6.81
2022-11-25T15:58:26.241Z,6.83
2022-11-25T16:01:18.156Z,6.89
2022-11-25T16:04:19.270Z,6.90
2022-11-25T16:07:23.570Z,6.92
2022-11-25T16:10:24.284Z,6.94
2022-11-25T16:13:23.041Z,7.03
2022-11-25T16:16:13.102Z,7.06
2022-11-25T16:19:01.962Z,7.13
2022-11-25T16:21:53.051Z,7.16
2022-11-25T16:24:50.674Z,7.20
2022-11-25T16:27:38.196Z,7.25
2022-11-25T16:30:23.785Z,7.25
2022-11-25T16:33:12.280Z,7.27
2022-11-25T16:35:57.471Z,7.26
2022-11-25T16:38:43.325Z,7.27
2022-11-25T16:41:29.882Z,7.28
2022-11-25T16:44:21.695Z,7.30
2022-11-25T16:47:10.654Z,7.31
2022-11-25T16:49:56.508Z,7.31
2022-11-25T16:52:42.456Z,7.34
2022-11-25T16:55:28.129Z,7.34
2022-11-25T16:58:24.248Z,7.39
2022-11-25T17:01:15.097Z,7.43
2022-11-25T17:04:00.903Z,7.51
2022-11-25T17:07:09.557Z,7.57
2022-11-25T17:09:51.937Z,7.64
2022-11-25T17:12:39.363Z,7.64
2022-11-25T17:15:32.332Z,7.63
2022-11-25T17:18:18.425Z,7.63
2022-11-25T17:21:04.003Z,7.62
2022-11-25T17:23:52.511Z,7.60
2022-11-25T17:26:42.816Z,7.60
2022-11-25T17:29:39.850Z,7.60
2022-11-25T17:32:26.411Z,7.60
2022-11-25T17:35:20.008Z,7.59
2022-11-25T17:38:13.071Z,7.60
2022-11-25T17:40:58.193Z,7.63
2022-11-25T17:43:44.747Z,7.61
2022-11-25T17:46:29.978Z,7.61
2022-11-25T17:49:15.606Z,7.58
2022-11-25T17:52:01.118Z,7.53
2022-11-25T17:54:46.503Z,7.51
2022-11-25T17:57:31.772Z,7.50
2022-11-25T18:00:20.386Z,7.53
2022-11-25T18:03:11.946Z,7.56
2022-11-25T18:05:57.615Z,7.58
2022-11-25T18:08:43.165Z,7.65
2022-11-25T18:11:28.401Z,7.66
2022-11-25T18:14:24.993Z,7.66
2022-11-25T18:17:16.544Z,7.67
2022-11-25T18:20:19.578Z,7.68
2022-11-25T18:23:04.717Z,7.63
2022-11-25T18:25:51.450Z,7.65
2022-11-25T18:28:37.578Z,7.66
2022-11-25T18:31:23.628Z,7.67
2022-11-25T18:34:16.154Z,7.68
2022-11-25T18:37:03.084Z,7.73
2022-11-25T18:39:48.169Z,7.76
2022-11-25T18:42:33.609Z,7.75
2022-11-25T18:45:36.576Z,7.78
2022-11-25T18:48:24.299Z,7.74
2022-11-25T18:51:12.095Z,7.73
2022-11-25T18:53:57.439Z,7.74
2022-11-25T18:56:43.527Z,7.73
2022-11-25T18:59:36.039Z,7.73
2022-11-25T19:02:21.395Z,7.76
2022-11-25T19:05:19.038Z,7.81
2022-11-25T19:08:04.673Z,7.85
2022-11-25T19:10:51.050Z,7.89
2022-11-25T19:13:37.029Z,7.91
2022-11-25T19:16:23.315Z,7.87
2022-11-25T19:19:14.175Z,7.89
2022-11-25T19:22:01.311Z,7.91
2022-11-25T19:24:46.881Z,7.94
2022-11-25T19:27:35.670Z,7.93
2022-11-25T19:30:24.370Z,7.94
2022-11-25T19:33:43.623Z,7.94
2022-11-25T19:36:32.012Z,7.91
2022-11-25T19:39:20.876Z,7.91
2022-11-25T19:42:06.401Z,7.90
2022-11-25T19:44:52.864Z,7.88
2022-11-25T19:47:38.140Z,7.87
2022-11-25T19:50:26.199Z,7.86
2022-11-25T19:53:22.179Z,7.86
2022-11-25T19:56:15.865Z,7.88
2022-11-25T19:59:01.074Z,7.93
2022-11-25T20:01:46.859Z,7.92
2022-11-25T20:04:31.786Z,7.92
2022-11-25T20:07:20.309Z,7.94
2022-11-25T20:10:19.841Z,7.93
2022-11-25T20:13:06.529Z,7.93
2022-11-25T20:15:53.521Z,7.92
2022-11-25T20:18:39.357Z,7.92
2022-11-25T20:21:32.584Z,7.92
2022-11-25T20:24:19.741Z,7.90
2022-11-25T20:27:04.612Z,7.95
2022-11-25T20:29:49.929Z,7.97
2022-11-25T20:32:35.456Z,7.96
2022-11-25T20:35:22.485Z,7.99
2022-11-25T20:38:16.625Z,8.00
2022-11-25T20:41:02.319Z,8.01
2022-11-25T20:43:49.532Z,8.03
2022-11-25T20:46:34.679Z,8.06
2022-11-25T20:49:23.659Z,8.07
2022-11-25T20:52:18.940Z,8.07
2022-11-25T20:55:14.715Z,8.10
2022-11-25T20:57:59.913Z,8.05
2022-11-25T21:00:45.283Z,8.05
2022-11-25T21:03:30.380Z,8.07
2022-11-25T21:06:27.437Z,8.08
2022-11-25T21:09:23.327Z,8.06
2022-11-25T21:12:18.930Z,8.05
2022-11-25T21:15:13.355Z,8.02
2022-11-25T21:17:59.571Z,8.00
2022-11-25T21:20:45.095Z,8.02
2022-11-25T21:23:36.346Z,8.03
2022-11-25T21:26:25.483Z,8.04
2022-11-25T21:29:15.473Z,8.07
2022-11-25T21:32:00.590Z,8.05
2022-11-25T21:34:46.152Z,8.08
2022-11-25T21:37:38.121Z,8.08
2022-11-25T21:40:42.449Z,8.08
2022-11-25T21:43:32.387Z,8.11
2022-11-25T21:46:20.379Z,8.14
2022-11-25T21:49:11.538Z,8.15
2022-11-25T21:51:56.702Z,8.13
2022-11-25T21:54:42.226Z,8.15
2022-11-25T21:57:29.200Z,8.15
2022-11-25T22:00:32.507Z,8.17
2022-11-25T22:03:19.604Z,8.15
2022-11-25T22:06:16.247Z,8.12
2022-11-25T22:09:01.478Z,8.13
2022-11-25T22:11:50.177Z,8.13
2022-11-25T22:14:37.252Z,8.13
2022-11-25T22:17:23.014Z,8.12
2022-11-25T22:20:30.861Z,8.10
2022-11-25T22:23:19.389Z,8.12
2022-11-25T22:26:05.326Z,8.09
2022-11-25T22:28:51.946Z,8.12
2022-11-25T22:31:37.424Z,8.08
2022-11-25T22:34:24.367Z,8.10
2022-11-25T22:37:18.080Z,8.12
2022-11-25T22:40:03.206Z,8.11
2022-11-25T22:42:51.108Z,8.08
2022-11-25T22:45:36.674Z,8.09
2022-11-25T22:48:29.962Z,8.07
2022-11-25T22:51:19.959Z,8.00
2022-11-25T22:54:11.374Z,7.99
2022-11-25T22:56:57.162Z,7.98
2022-11-25T22:59:43.259Z,7.98
2022-11-25T23:02:34.150Z,7.96
2022-11-25T23:05:32.200Z,7.95
2022-11-25T23:08:23.955Z,7.99
2022-11-25T23:11:17.395Z,7.97
2022-11-25T23:14:03.075Z,7.99
2022-11-25T23:16:48.565Z,8.04
2022-11-25T23:19:33.945Z,8.01
2022-11-25T23:22:19.677Z,8.03
2022-11-25T23:25:11.697Z,8.01
2022-11-25T23:27:56.986Z,7.96
2022-11-25T23:31:02.967Z,7.98
2022-11-25T23:33:50.046Z,7.94
2022-11-25T23:36:48.178Z,7.98
2022-11-25T23:39:36.604Z,7.98
2022-11-25T23:42:21.548Z,8.00
2022-11-25T23:45:09.633Z,8.01
2022-11-25T23:47:56.824Z,7.99
2022-11-25T23:50:42.294Z,8.02
2022-11-25T23:53:33.117Z,8.03
2022-11-25T23:56:19.032Z,8.07
2022-11-25T23:59:11.946Z,8.07
